createdAt,value
2022-10-23T00:01:26.347Z,91.54
2022-10-23T00:03:58.979Z,91.77
2022-10-23T00:06:26.476Z,92.08
2022-10-23T00:08:53.068Z,91.30
2022-10-23T00:11:22.297Z,91.58
2022-10-23T00:13:49.413Z,91.77
2022-10-23T00:16:15.857Z,91.64
2022-10-23T00:18:42.542Z,91.71
2022-10-23T00:21:11.401Z,91.59
2022-10-23T00:23:38.169Z,91.88
2022-10-23T00:26:04.914Z,91.83
2022-10-23T00:28:31.332Z,92.14
2022-10-23T00:30:57.656Z,92.13
2022-10-23T00:33:23.962Z,92.61
2022-10-23T00:35:50.303Z,92.13
2022-10-23T00:38:16.673Z,92.08
2022-10-23T00:40:44.769Z,91.99
2022-10-23T00:43:21.134Z,91.73
2022-10-23T00:45:47.907Z,91.82
2022-10-23T00:48:15.061Z,92.19
2022-10-23T00:50:42.135Z,92.39
2022-10-23T00:53:10.171Z,92.60
2022-10-23T00:55:38.345Z,91.98
2022-10-23T00:58:05.296Z,92.52
2022-10-23T01:00:44.075Z,92.27
2022-10-23T01:03:10.536Z,92.53
2022-10-23T01:08:48.719Z,92.18
2022-10-23T01:11:18.721Z,93.07
2022-10-23T01:16:49.745Z,93.11
2022-10-23T01:19:25.279Z,92.43
2022-10-23T01:22:00.311Z,92.74
2022-10-23T01:24:49.302Z,93.07
2022-10-23T01:27:20.400Z,93.12
2022-10-23T01:29:54.326Z,93.14
2022-10-23T01:32:30.965Z,92.86
2022-10-23T01:35:21.791Z,93.47
2022-10-23T01:37:54.027Z,93.11
2022-10-23T01:40:25.164Z,93.45
2022-10-23T01:42:56.331Z,93.33
2022-10-23T01:45:36.043Z,92.95
2022-10-23T01:48:04.477Z,93.61
2022-10-23T01:50:32.162Z,93.64
2022-10-23T01:52:58.657Z,93.58
2022-10-23T01:55:25.970Z,93.82
2022-10-23T01:57:53.686Z,93.71
2022-10-23T02:00:20.851Z,93.39
2022-10-23T02:02:50.209Z,93.45
2022-10-23T02:05:24.494Z,93.25
2022-10-23T02:07:52.597Z,93.39
2022-10-23T02:10:19.848Z,93.84
2022-10-23T02:12:49.054Z,93.99
2022-10-23T02:15:18.300Z,94.02
2022-10-23T02:18:10.649Z,93.53
2022-10-23T02:20:45.808Z,94.01
2022-10-23T02:23:31.217Z,93.90
2022-10-23T02:26:07.978Z,93.57
2022-10-23T02:28:45.418Z,93.65
2022-10-23T02:31:16.479Z,94.32
2022-10-23T02:33:45.840Z,93.68
2022-10-23T02:36:12.548Z,94.11
2022-10-23T02:38:41.810Z,94.22
2022-10-23T02:41:36.657Z,93.96
2022-10-23T02:44:24.333Z,93.66
2022-10-23T02:47:08.233Z,93.54
2022-10-23T02:49:42.624Z,93.43
2022-10-23T02:52:17.914Z,94.08
2022-10-23T02:54:56.043Z,93.66
2022-10-23T02:57:32.088Z,93.94
2022-10-23T03:00:12.893Z,94.26
2022-10-23T03:02:43.821Z,94.26
2022-10-23T03:05:16.365Z,93.81
2022-10-23T03:07:43.630Z,93.60
2022-10-23T03:10:10.262Z,94.49
2022-10-23T03:12:37.543Z,93.94
2022-10-23T03:15:05.382Z,94.54
2022-10-23T03:17:31.938Z,94.75
2022-10-23T03:19:58.311Z,94.75
2022-10-23T03:22:24.957Z,93.88
2022-10-23T03:24:51.353Z,94.46
2022-10-23T03:27:17.872Z,94.90
2022-10-23T03:29:44.204Z,94.71
2022-10-23T03:32:10.580Z,94.51
2022-10-23T03:34:36.935Z,94.45
2022-10-23T03:37:03.346Z,94.84
2022-10-23T03:39:29.754Z,94.75
2022-10-23T03:41:56.156Z,94.56
2022-10-23T03:44:22.464Z,94.71
2022-10-23T03:46:48.768Z,94.80
2022-10-23T03:49:15.102Z,94.51
2022-10-23T03:51:41.886Z,95.01
2022-10-23T03:54:08.817Z,94.46
2022-10-23T03:56:35.172Z,94.61
2022-10-23T03:59:01.609Z,95.16
2022-10-23T04:01:28.044Z,95.29
2022-10-23T04:03:54.589Z,94.69
2022-10-23T04:06:20.886Z,95.08
2022-10-23T04:08:47.319Z,95.12
2022-10-23T04:11:13.642Z,94.67
2022-10-23T04:13:40.030Z,95.25
2022-10-23T04:16:06.736Z,95.07
2022-10-23T04:18:33.102Z,94.37
2022-10-23T04:20:59.458Z,94.95
2022-10-23T04:23:25.829Z,95.24
2022-10-23T04:25:52.146Z,94.59
2022-10-23T04:28:18.474Z,94.99
2022-10-23T04:30:44.836Z,95.07
2022-10-23T04:33:11.152Z,95.35
2022-10-23T04:35:37.510Z,95.00
2022-10-23T04:38:03.896Z,95.30
2022-10-23T04:40:30.525Z,95.37
2022-10-23T04:42:57.234Z,95.30
2022-10-23T04:45:23.773Z,94.81
2022-10-23T04:47:50.164Z,95.07
2022-10-23T04:50:16.827Z,95.02
2022-10-23T04:52:43.598Z,94.93
2022-10-23T04:55:10.369Z,95.22
2022-10-23T04:57:36.732Z,94.78
2022-10-23T05:00:06.141Z,94.95
2022-10-23T05:02:32.720Z,95.35
2022-10-23T05:04:59.069Z,95.19
2022-10-23T05:07:25.439Z,95.41
2022-10-23T05:09:51.838Z,95.43
2022-10-23T05:12:18.482Z,95.27
2022-10-23T05:14:44.824Z,95.27
2022-10-23T05:17:40.525Z,95.07
2022-10-23T05:20:12.882Z,95.83
2022-10-23T05:22:42.606Z,95.61
2022-10-23T05:25:10.070Z,95.83
2022-10-23T05:27:36.475Z,95.84
2022-10-23T05:30:04.039Z,95.59
2022-10-23T05:32:32.137Z,96.29
2022-10-23T05:35:00.669Z,95.92
2022-10-23T05:37:27.247Z,95.48
2022-10-23T05:39:53.793Z,95.59
2022-10-23T05:42:20.199Z,96.04
2022-10-23T05:44:46.586Z,96.18
2022-10-23T05:47:12.930Z,96.39
2022-10-23T05:49:39.296Z,96.52
2022-10-23T05:52:05.971Z,96.20
2022-10-23T05:54:33.080Z,96.55
2022-10-23T05:56:59.457Z,96.30
2022-10-23T05:59:25.845Z,96.73
2022-10-23T06:01:52.385Z,96.65
2022-10-23T06:04:18.946Z,96.29
2022-10-23T06:06:46.468Z,96.21
2022-10-23T06:09:14.250Z,96.51
2022-10-23T06:11:41.718Z,97.05
2022-10-23T06:14:08.205Z,96.80
2022-10-23T06:16:34.643Z,96.70
2022-10-23T06:19:01.085Z,96.67
2022-10-23T06:21:27.477Z,97.16
2022-10-23T06:23:55.259Z,96.95
2022-10-23T06:26:21.894Z,96.98
2022-10-23T06:28:48.312Z,97.11
2022-10-23T06:31:16.226Z,97.68
2022-10-23T06:33:42.640Z,97.41
2022-10-23T06:36:10.526Z,97.78
2022-10-23T06:38:40.305Z,97.37
2022-10-23T06:41:12.327Z,97.19
2022-10-23T06:43:38.667Z,97.28
2022-10-23T06:46:05.229Z,97.38
2022-10-23T06:48:31.954Z,97.60
2022-10-23T06:50:59.417Z,97.44
2022-10-23T06:53:25.867Z,97.44
2022-10-23T06:55:55.287Z,97.69
2022-10-23T06:58:22.185Z,97.62
2022-10-23T07:00:48.556Z,97.81
2022-10-23T07:03:14.900Z,97.43
2022-10-23T07:05:41.282Z,98.08
2022-10-23T07:08:07.652Z,97.98
2022-10-23T07:10:34.366Z,97.88
2022-10-23T07:13:01.149Z,98.05
2022-10-23T07:15:27.856Z,98.17
2022-10-23T07:17:54.302Z,98.09
2022-10-23T07:20:21.275Z,98.16
2022-10-23T07:22:53.521Z,98.25
2022-10-23T07:25:25.109Z,97.90
2022-10-23T07:27:52.065Z,98.78
2022-10-23T07:30:18.647Z,98.02
2022-10-23T07:32:45.497Z,98.46
2022-10-23T07:37:39.868Z,98.57
2022-10-23T07:40:07.283Z,98.62
2022-10-23T07:42:34.000Z,98.05
2022-10-23T07:45:00.478Z,98.54
2022-10-23T07:47:26.948Z,98.44
2022-10-23T07:49:53.381Z,98.49
2022-10-23T07:52:19.864Z,98.16
2022-10-23T07:54:46.214Z,98.46
2022-10-23T07:57:12.544Z,98.16
2022-10-23T07:59:38.947Z,98.45
2022-10-23T08:02:13.092Z,98.51
2022-10-23T08:04:40.418Z,98.54
2022-10-23T08:07:07.004Z,98.59
2022-10-23T08:09:34.547Z,98.52
2022-10-23T08:12:01.861Z,98.63
2022-10-23T08:14:28.724Z,98.24
2022-10-23T08:16:55.227Z,98.52
2022-10-23T08:19:21.775Z,98.37
2022-10-23T08:21:48.156Z,98.14
2022-10-23T08:24:14.708Z,98.73
2022-10-23T08:26:41.363Z,97.89
2022-10-23T08:29:07.800Z,98.48
2022-10-23T08:31:34.146Z,98.17
2022-10-23T08:34:00.697Z,98.16
2022-10-23T08:36:28.763Z,98.22
2022-10-23T08:38:56.906Z,98.15
2022-10-23T08:41:25.378Z,97.89
2022-10-23T08:44:03.079Z,98.42
2022-10-23T08:46:34.655Z,98.48
2022-10-23T08:49:16.737Z,98.14
2022-10-23T08:51:49.101Z,97.66
2022-10-23T08:54:33.924Z,97.81
2022-10-23T08:57:12.800Z,97.96
2022-10-23T08:59:59.242Z,97.61
2022-10-23T09:02:25.810Z,96.95
2022-10-23T09:04:54.008Z,97.65
2022-10-23T09:07:32.301Z,97.72
2022-10-23T09:10:11.046Z,97.78
2022-10-23T09:12:37.803Z,97.45
2022-10-23T09:15:04.213Z,97.68
2022-10-23T09:17:32.510Z,97.02
2022-10-23T09:20:22.840Z,97.09
2022-10-23T09:23:14.062Z,96.81
2022-10-23T09:25:42.478Z,96.71
2022-10-23T09:28:24.256Z,96.60
2022-10-23T09:30:52.147Z,96.43
2022-10-23T09:33:27.122Z,96.72
2022-10-23T09:35:59.599Z,96.43
2022-10-23T09:38:45.818Z,96.44
2022-10-23T09:41:31.061Z,96.40
2022-10-23T09:44:29.721Z,96.07
2022-10-23T09:47:00.810Z,96.41
2022-10-23T09:49:29.994Z,96.51
2022-10-23T09:52:02.039Z,96.33
2022-10-23T09:54:32.056Z,96.07
2022-10-23T09:57:04.774Z,96.24
2022-10-23T09:59:35.690Z,96.53
2022-10-23T10:02:05.441Z,96.20
2022-10-23T10:04:34.418Z,96.45
2022-10-23T10:07:03.288Z,95.80
2022-10-23T10:09:29.830Z,96.20
2022-10-23T10:12:07.579Z,95.96
2022-10-23T10:14:42.920Z,96.09
2022-10-23T10:17:20.894Z,95.69
2022-10-23T10:19:50.325Z,95.25
2022-10-23T10:22:34.169Z,95.26
2022-10-23T10:25:01.240Z,95.50
2022-10-23T10:27:27.670Z,95.01
2022-10-23T10:30:13.108Z,95.08
2022-10-23T10:32:59.574Z,94.93
2022-10-23T10:35:42.191Z,95.20
2022-10-23T10:38:24.027Z,94.79
2022-10-23T10:41:16.823Z,94.78
2022-10-23T10:44:13.167Z,94.53
2022-10-23T10:47:14.924Z,94.38
2022-10-23T10:50:08.141Z,94.46
2022-10-23T10:52:59.884Z,94.26
2022-10-23T10:55:34.095Z,94.24
2022-10-23T10:58:12.105Z,93.87
2022-10-23T11:00:39.588Z,93.80
2022-10-23T11:03:23.495Z,93.52
2022-10-23T11:05:51.660Z,93.43
2022-10-23T11:08:22.488Z,93.25
2022-10-23T11:10:54.212Z,93.46
2022-10-23T11:13:34.837Z,93.07
2022-10-23T11:16:23.890Z,92.71
2022-10-23T11:19:11.501Z,92.75
2022-10-23T11:21:53.499Z,92.79
2022-10-23T11:24:44.146Z,92.82
2022-10-23T11:27:31.241Z,92.97
2022-10-23T11:30:18.686Z,92.66
2022-10-23T11:32:57.051Z,92.77
2022-10-23T11:35:41.513Z,92.07
2022-10-23T11:38:19.121Z,92.27
2022-10-23T11:41:30.509Z,92.29
2022-10-23T11:44:05.143Z,91.82
2022-10-23T11:46:35.330Z,91.00
2022-10-23T11:49:05.956Z,91.12
2022-10-23T11:51:37.118Z,90.36
2022-10-23T11:54:16.121Z,90.49
2022-10-23T11:57:10.418Z,90.55
2022-10-23T11:59:49.196Z,89.99
2022-10-23T12:02:21.915Z,88.81
2022-10-23T12:04:52.432Z,88.94
2022-10-23T12:07:26.705Z,88.71
2022-10-23T12:09:57.914Z,87.12
2022-10-23T12:12:35.146Z,88.11
2022-10-23T12:15:18.789Z,87.50
2022-10-23T12:17:47.792Z,87.68
2022-10-23T12:20:14.366Z,87.38
2022-10-23T12:22:56.155Z,87.32
2022-10-23T12:25:22.548Z,87.69
2022-10-23T12:27:58.831Z,87.20
2022-10-23T12:30:45.305Z,86.94
2022-10-23T12:33:25.449Z,86.47
2022-10-23T12:36:10.613Z,86.13
2022-10-23T12:38:45.479Z,86.72
2022-10-23T12:41:31.989Z,86.04
2022-10-23T12:44:01.916Z,85.67
2022-10-23T12:46:36.511Z,85.53
2022-10-23T12:49:12.815Z,85.06
2022-10-23T12:51:39.495Z,85.47
2022-10-23T12:54:19.658Z,85.10
2022-10-23T12:56:47.512Z,84.97
2022-10-23T12:59:20.619Z,85.29
2022-10-23T13:01:52.399Z,84.93
2022-10-23T13:04:22.193Z,85.47
2022-10-23T13:06:50.369Z,85.04
2022-10-23T13:09:39.265Z,85.07
2022-10-23T13:12:07.298Z,85.39
2022-10-23T13:14:43.758Z,84.83
2022-10-23T13:17:13.150Z,84.49
2022-10-23T13:19:39.576Z,85.18
2022-10-23T13:22:21.445Z,84.90
2022-10-23T13:24:48.770Z,84.89
2022-10-23T13:27:33.293Z,85.01
2022-10-23T13:30:00.306Z,85.37
2022-10-23T13:32:30.200Z,84.84
2022-10-23T13:35:20.954Z,84.76
2022-10-23T13:37:48.878Z,84.04
2022-10-23T13:40:27.789Z,83.96
2022-10-23T13:42:57.136Z,85.04
2022-10-23T13:45:25.978Z,83.99
2022-10-23T13:47:53.285Z,83.96
2022-10-23T13:50:20.352Z,84.03
2022-10-23T13:52:47.078Z,84.12
2022-10-23T13:55:21.198Z,84.73
2022-10-23T13:57:48.085Z,84.51
2022-10-23T14:00:15.253Z,84.43
2022-10-23T14:02:43.059Z,84.23
2022-10-23T14:05:10.645Z,83.66
2022-10-23T14:07:37.179Z,83.00
2022-10-23T14:10:04.381Z,82.97
2022-10-23T14:12:31.143Z,82.71
2022-10-23T14:14:57.562Z,83.29
2022-10-23T14:17:23.940Z,82.35
2022-10-23T14:19:50.501Z,82.16
2022-10-23T14:22:18.142Z,82.33
2022-10-23T14:24:44.626Z,82.45
2022-10-23T14:27:12.194Z,82.39
2022-10-23T14:29:40.575Z,82.39
2022-10-23T14:32:07.403Z,82.06
2022-10-23T14:34:33.993Z,82.04
2022-10-23T14:37:08.718Z,81.88
2022-10-23T14:39:35.684Z,81.62
2022-10-23T14:42:02.191Z,81.42
2022-10-23T14:44:28.816Z,81.35
2022-10-23T14:46:55.309Z,81.34
2022-10-23T14:49:21.721Z,81.11
2022-10-23T14:51:48.287Z,82.20
2022-10-23T14:54:15.790Z,81.94
2022-10-23T14:56:42.410Z,82.15
2022-10-23T14:59:10.628Z,82.50
2022-10-23T15:01:45.359Z,82.11
2022-10-23T15:04:16.473Z,82.56
2022-10-23T15:06:44.006Z,82.19
2022-10-23T15:09:10.754Z,82.02
2022-10-23T15:11:37.475Z,82.23
2022-10-23T15:14:03.936Z,83.00
2022-10-23T15:16:30.440Z,82.58
2022-10-23T15:19:03.139Z,82.44
2022-10-23T15:21:29.639Z,83.21
2022-10-23T15:23:56.207Z,82.99
2022-10-23T15:26:24.057Z,83.18
2022-10-23T15:28:59.394Z,83.16
2022-10-23T15:31:28.881Z,83.22
2022-10-23T15:34:01.371Z,83.19
2022-10-23T15:36:28.035Z,83.36
2022-10-23T15:38:54.725Z,83.78
2022-10-23T15:41:28.703Z,83.80
2022-10-23T15:43:55.247Z,83.63
2022-10-23T15:46:21.928Z,84.04
2022-10-23T15:48:48.628Z,84.26
2022-10-23T15:51:15.181Z,83.92
2022-10-23T15:53:41.727Z,83.91
2022-10-23T15:56:08.501Z,84.26
2022-10-23T15:58:34.992Z,84.44
2022-10-23T16:01:06.644Z,84.59
2022-10-23T16:03:38.615Z,84.64
2022-10-23T16:06:11.142Z,85.36
2022-10-23T16:08:38.666Z,85.21
2022-10-23T16:11:17.721Z,85.01
2022-10-23T16:13:44.944Z,85.10
2022-10-23T16:16:12.430Z,85.17
2022-10-23T16:18:39.349Z,85.51
2022-10-23T16:21:07.597Z,85.59
2022-10-23T16:23:35.080Z,85.53
2022-10-23T16:26:06.019Z,85.67
2022-10-23T16:28:33.217Z,86.14
2022-10-23T16:31:00.407Z,85.82
2022-10-23T16:33:27.643Z,85.67
2022-10-23T16:35:54.278Z,85.93
2022-10-23T16:38:20.958Z,85.48
2022-10-23T16:40:52.470Z,85.82
2022-10-23T16:43:19.178Z,86.01
2022-10-23T16:45:45.726Z,85.96
2022-10-23T16:48:12.443Z,86.14
2022-10-23T16:53:07.348Z,86.60
2022-10-23T16:55:33.998Z,86.67
2022-10-23T16:58:00.703Z,86.15
2022-10-23T17:00:34.878Z,86.44
2022-10-23T17:03:05.195Z,86.23
2022-10-23T17:05:35.438Z,86.40
2022-10-23T17:08:01.944Z,85.78
2022-10-23T17:10:28.461Z,86.25
2022-10-23T17:12:54.888Z,86.28
2022-10-23T17:15:21.277Z,86.31
2022-10-23T17:17:47.749Z,85.94
2022-10-23T17:20:14.164Z,86.34
2022-10-23T17:22:40.739Z,86.29
2022-10-23T17:25:08.040Z,86.61
2022-10-23T17:27:34.542Z,86.48
2022-10-23T17:30:00.965Z,86.55
2022-10-23T17:32:27.481Z,86.38
2022-10-23T17:34:54.111Z,86.65
2022-10-23T17:37:20.620Z,86.94
2022-10-23T17:39:47.505Z,86.83
2022-10-23T17:42:14.094Z,86.63
2022-10-23T17:44:40.563Z,86.66
2022-10-23T17:47:07.075Z,86.50
2022-10-23T17:49:33.503Z,86.89
2022-10-23T17:51:59.926Z,86.47
2022-10-23T17:54:27.481Z,86.41
2022-10-23T17:56:54.340Z,86.77
2022-10-23T17:59:20.921Z,86.64
2022-10-23T18:01:48.872Z,86.94
2022-10-23T18:04:17.128Z,86.58
2022-10-23T18:06:47.424Z,86.79
2022-10-23T18:09:14.689Z,87.04
2022-10-23T18:11:45.397Z,86.68
2022-10-23T18:14:14.333Z,86.89
2022-10-23T18:16:40.827Z,86.94
2022-10-23T18:19:07.986Z,86.67
2022-10-23T18:21:35.791Z,86.93
2022-10-23T18:24:03.127Z,86.78
2022-10-23T18:26:32.229Z,86.95
2022-10-23T18:28:59.594Z,87.33
2022-10-23T18:31:29.623Z,87.03
2022-10-23T18:34:03.167Z,87.05
2022-10-23T18:36:32.438Z,87.55
2022-10-23T18:38:59.465Z,86.62
2022-10-23T18:41:26.155Z,86.91
2022-10-23T18:43:53.741Z,86.55
2022-10-23T18:46:21.691Z,86.63
2022-10-23T18:48:50.734Z,86.83
2022-10-23T18:51:21.599Z,86.68
2022-10-23T18:53:49.214Z,86.64
2022-10-23T18:56:21.689Z,86.98
2022-10-23T18:58:53.166Z,87.33
2022-10-23T19:01:21.070Z,87.02
2022-10-23T19:03:47.978Z,87.62
2022-10-23T19:06:15.228Z,87.74
2022-10-23T19:08:43.918Z,87.81
2022-10-23T19:11:11.818Z,88.09
2022-10-23T19:13:39.489Z,88.96
2022-10-23T19:16:12.056Z,89.10
2022-10-23T19:18:42.431Z,89.49
2022-10-23T19:21:09.327Z,89.49
2022-10-23T19:23:37.945Z,89.84
2022-10-23T19:26:08.831Z,89.75
2022-10-23T19:28:37.975Z,89.84
2022-10-23T19:31:04.898Z,89.72
2022-10-23T19:33:32.533Z,89.56
2022-10-23T19:36:01.253Z,89.60
2022-10-23T19:38:31.728Z,89.59
2022-10-23T19:40:58.221Z,89.35
2022-10-23T19:43:24.668Z,89.26
2022-10-23T19:45:51.282Z,89.12
2022-10-23T19:48:17.937Z,89.28
2022-10-23T19:50:44.585Z,89.63
2022-10-23T19:53:11.163Z,89.16
2022-10-23T19:55:37.735Z,89.44
2022-10-23T19:58:04.327Z,89.48
2022-10-23T20:00:30.773Z,88.89
2022-10-23T20:02:57.407Z,89.38
2022-10-23T20:05:23.998Z,89.81
2022-10-23T20:07:51.384Z,89.49
2022-10-23T20:10:17.912Z,89.77
2022-10-23T20:12:51.489Z,89.76
2022-10-23T20:15:23.519Z,89.64
2022-10-23T20:17:49.991Z,89.48
2022-10-23T20:20:16.494Z,88.75
2022-10-23T20:22:44.131Z,88.47
2022-10-23T20:25:10.808Z,88.30
2022-10-23T20:30:03.903Z,87.60
2022-10-23T20:32:30.393Z,87.76
2022-10-23T20:34:57.007Z,87.00
2022-10-23T20:37:23.515Z,86.44
2022-10-23T20:39:49.981Z,86.47
2022-10-23T20:42:16.461Z,85.62
2022-10-23T20:44:43.025Z,85.26
2022-10-23T20:47:09.623Z,85.00
2022-10-23T20:49:36.204Z,83.73
2022-10-23T20:52:03.142Z,83.32
2022-10-23T20:54:30.021Z,82.67
2022-10-23T20:56:57.107Z,82.79
2022-10-23T20:59:23.902Z,81.73
2022-10-23T21:01:53.249Z,81.30
2022-10-23T21:04:24.726Z,81.74
2022-10-23T21:07:10.857Z,80.95
2022-10-23T21:09:38.935Z,81.06
2022-10-23T21:12:06.625Z,80.66
2022-10-23T21:14:33.637Z,80.89
2022-10-23T21:17:00.456Z,81.04
2022-10-23T21:19:27.299Z,80.51
2022-10-23T21:21:54.321Z,80.72
2022-10-23T21:24:20.833Z,80.63
2022-10-23T21:26:47.482Z,81.01
2022-10-23T21:29:19.071Z,80.51
2022-10-23T21:31:54.987Z,81.39
2022-10-23T21:34:22.280Z,81.37
2022-10-23T21:37:11.531Z,80.91
2022-10-23T21:39:35.640Z,81.02
2022-10-23T21:42:02.091Z,81.73
2022-10-23T21:44:28.727Z,81.55
2022-10-23T21:46:55.332Z,81.79
2022-10-23T21:49:21.866Z,82.00
2022-10-23T21:51:48.638Z,81.66
2022-10-23T21:54:15.443Z,82.36
2022-10-23T21:56:47.879Z,81.93
2022-10-23T21:59:20.254Z,81.92
2022-10-23T22:01:48.503Z,82.52
2022-10-23T22:04:19.452Z,82.56
2022-10-23T22:06:47.883Z,82.60
2022-10-23T22:09:17.316Z,82.42
2022-10-23T22:11:43.859Z,82.37
2022-10-23T22:14:10.434Z,82.77
2022-10-23T22:16:37.251Z,82.45
2022-10-23T22:19:03.929Z,82.40
2022-10-23T22:21:31.327Z,82.89
2022-10-23T22:23:59.914Z,83.79
2022-10-23T22:26:32.145Z,83.23
2022-10-23T22:29:01.657Z,84.22
2022-10-23T22:31:31.553Z,83.80
2022-10-23T22:33:58.939Z,84.24
2022-10-23T22:36:25.819Z,84.22
2022-10-23T22:38:52.746Z,84.56
2022-10-23T22:41:19.382Z,84.88
2022-10-23T22:43:46.048Z,85.29
2022-10-23T22:46:14.599Z,85.67
2022-10-23T22:48:41.357Z,85.98
2022-10-23T22:51:10.314Z,86.53
2022-10-23T22:53:36.804Z,87.01
2022-10-23T22:56:11.719Z,87.19
2022-10-23T22:58:38.120Z,87.42
2022-10-23T23:01:18.804Z,87.53
2022-10-23T23:03:45.882Z,87.42
2022-10-23T23:06:12.787Z,87.85
2022-10-23T23:08:40.401Z,87.63
2022-10-23T23:11:10.642Z,88.17
2022-10-23T23:13:37.040Z,87.94
2022-10-23T23:16:04.012Z,87.96
2022-10-23T23:18:31.133Z,87.84
2022-10-23T23:21:02.250Z,88.09
2022-10-23T23:23:29.019Z,87.84
2022-10-23T23:25:55.530Z,87.81
2022-10-23T23:28:22.048Z,87.83
2022-10-23T23:30:48.935Z,88.03
2022-10-23T23:33:19.358Z,88.20
2022-10-23T23:35:48.013Z,87.89
2022-10-23T23:38:14.352Z,88.35
2022-10-23T23:40:40.751Z,88.55
2022-10-23T23:43:07.888Z,88.52
2022-10-23T23:45:34.265Z,88.48
2022-10-23T23:48:00.589Z,88.93
2022-10-23T23:50:27.916Z,88.60
2022-10-23T23:52:54.285Z,88.98
2022-10-23T23:55:20.634Z,89.12
2022-10-23T23:57:47.292Z,88.91
